createdAt,value
2018-03-03T00:01:28.500Z,98546.58
2018-03-03T00:03:54.456Z,98544.53
2018-03-03T00:06:20.387Z,98547.02
2018-03-03T00:08:46.321Z,98549.70
2018-03-03T00:11:12.255Z,98542.62
2018-03-03T00:13:38.181Z,98544.05
2018-03-03T00:16:04.127Z,98544.81
2018-03-03T00:18:30.064Z,98532.64
2018-03-03T00:20:55.977Z,98534.81
2018-03-03T00:23:21.914Z,98528.55
2018-03-03T00:25:47.843Z,98530.91
2018-03-03T00:28:13.787Z,98529.27
2018-03-03T00:30:39.733Z,98526.48
2018-03-03T00:33:05.673Z,98529.17
2018-03-03T00:35:31.633Z,98526.88
2018-03-03T00:37:57.567Z,98522.51
2018-03-03T00:40:23.490Z,98521.73
2018-03-03T00:42:49.425Z,98524.81
2018-03-03T00:45:15.364Z,98532.14
2018-03-03T00:47:41.281Z,98547.44
2018-03-03T00:50:07.235Z,98548.11
2018-03-03T00:52:33.185Z,98553.53
2018-03-03T00:54:59.132Z,98553.34
2018-03-03T00:57:25.073Z,98551.80
2018-03-03T00:59:51.009Z,98549.40
2018-03-03T01:02:16.933Z,98553.08
2018-03-03T01:04:42.877Z,98548.54
2018-03-03T01:07:08.808Z,98539.97
2018-03-03T01:09:34.762Z,98545.84
2018-03-03T01:12:00.693Z,98543.01
2018-03-03T01:14:26.668Z,98546.13
2018-03-03T01:16:52.607Z,98555.66
2018-03-03T01:19:18.552Z,98556.69
2018-03-03T01:21:44.478Z,98543.72
2018-03-03T01:24:10.410Z,98550.55
2018-03-03T01:26:36.332Z,98548.16
2018-03-03T01:29:02.274Z,98547.89
2018-03-03T01:31:28.210Z,98546.20
2018-03-03T01:33:54.162Z,98544.83
2018-03-03T01:36:20.104Z,98554.28
2018-03-03T01:38:46.051Z,98560.34
2018-03-03T01:41:12.013Z,98553.55
2018-03-03T01:43:37.943Z,98551.50
2018-03-03T01:46:03.857Z,98560.25
2018-03-03T01:48:29.810Z,98553.36
2018-03-03T01:50:55.765Z,98554.27
2018-03-03T01:53:21.717Z,98551.47
2018-03-03T01:55:47.658Z,98548.94
2018-03-03T01:58:14.618Z,98564.78
2018-03-03T02:00:40.550Z,98562.49
2018-03-03T02:03:06.577Z,98563.00
2018-03-03T02:05:32.516Z,98567.01
2018-03-03T02:07:58.446Z,98561.81
2018-03-03T02:10:24.370Z,98566.93
2018-03-03T02:12:50.286Z,98567.36
2018-03-03T02:15:16.206Z,98567.98
2018-03-03T02:17:42.128Z,98573.64
2018-03-03T02:20:08.062Z,98571.66
2018-03-03T02:22:34.050Z,98570.94
2018-03-03T02:24:59.970Z,98571.23
2018-03-03T02:27:25.900Z,98569.08
2018-03-03T02:29:51.832Z,98576.17
2018-03-03T02:32:17.752Z,98579.83
2018-03-03T02:34:43.684Z,98577.94
2018-03-03T02:37:09.621Z,98571.73
2018-03-03T02:39:35.564Z,98575.02
2018-03-03T02:42:01.504Z,98581.63
2018-03-03T02:44:27.461Z,98586.53
2018-03-03T02:46:53.415Z,98587.17
2018-03-03T02:49:19.334Z,98589.78
2018-03-03T02:51:45.255Z,98587.47
2018-03-03T02:54:11.174Z,98590.16
2018-03-03T02:56:37.101Z,98597.23
2018-03-03T02:59:03.044Z,98603.86
2018-03-03T03:01:28.978Z,98604.13
2018-03-03T03:03:54.908Z,98603.28
2018-03-03T03:06:20.860Z,98608.28
2018-03-03T03:08:46.786Z,98605.22
2018-03-03T03:11:12.718Z,98612.97
2018-03-03T03:13:38.650Z,98601.25
2018-03-03T03:16:04.608Z,98600.89
2018-03-03T03:18:30.557Z,98599.32
2018-03-03T03:20:56.494Z,98600.92
2018-03-03T03:23:22.418Z,98607.34
2018-03-03T03:25:48.350Z,98606.30
2018-03-03T03:28:14.315Z,98607.02
2018-03-03T03:30:40.253Z,98602.97
2018-03-03T03:33:06.195Z,98593.56
2018-03-03T03:35:32.163Z,98600.67
2018-03-03T03:37:58.087Z,98592.59
2018-03-03T03:40:24.029Z,98585.27
2018-03-03T03:42:49.960Z,98583.79
2018-03-03T03:45:15.902Z,98571.45
2018-03-03T03:47:41.828Z,98569.84
2018-03-03T03:50:07.795Z,98572.39
2018-03-03T03:52:33.733Z,98573.89
2018-03-03T03:54:59.667Z,98571.00
2018-03-03T03:57:25.595Z,98576.03
2018-03-03T03:59:51.598Z,98576.14
2018-03-03T04:02:17.569Z,98573.13
2018-03-03T04:04:43.523Z,98566.80
2018-03-03T04:07:09.462Z,98560.81
2018-03-03T04:09:35.391Z,98555.81
2018-03-03T04:12:01.307Z,98559.47
2018-03-03T04:14:27.246Z,98562.48
2018-03-03T04:16:53.177Z,98570.06
2018-03-03T04:19:19.115Z,98569.55
2018-03-03T04:21:45.053Z,98568.87
2018-03-03T04:24:10.995Z,98564.86
2018-03-03T04:26:36.964Z,98557.78
2018-03-03T04:29:02.926Z,98559.63
2018-03-03T04:31:28.855Z,98561.11
2018-03-03T04:33:54.840Z,98556.19
2018-03-03T04:36:20.786Z,98550.86
2018-03-03T04:38:46.722Z,98550.53
2018-03-03T04:41:12.660Z,98546.34
2018-03-03T04:43:38.602Z,98543.88
2018-03-03T04:46:04.559Z,98541.55
2018-03-03T04:48:30.493Z,98538.63
2018-03-03T04:50:56.481Z,98533.69
2018-03-03T04:53:22.406Z,98544.70
2018-03-03T04:55:48.346Z,98530.42
2018-03-03T04:58:14.284Z,98530.94
2018-03-03T05:00:40.223Z,98539.83
2018-03-03T05:03:06.148Z,98534.70
2018-03-03T05:05:32.081Z,98528.41
2018-03-03T05:07:58.028Z,98526.03
2018-03-03T05:10:23.960Z,98525.13
2018-03-03T05:12:49.911Z,98520.83
2018-03-03T05:15:15.846Z,98513.67
2018-03-03T05:17:41.770Z,98507.05
2018-03-03T05:20:07.698Z,98501.98
2018-03-03T05:22:33.639Z,98500.91
2018-03-03T05:24:59.603Z,98493.53
2018-03-03T05:27:25.539Z,98486.41
2018-03-03T05:29:51.495Z,98493.14
2018-03-03T05:32:17.431Z,98493.94
2018-03-03T05:34:43.394Z,98483.46
2018-03-03T05:37:09.346Z,98484.63
2018-03-03T05:39:35.338Z,98484.44
2018-03-03T05:42:01.327Z,98481.63
2018-03-03T05:44:27.277Z,98478.03
2018-03-03T05:46:53.225Z,98482.28
2018-03-03T05:49:19.151Z,98479.06
2018-03-03T05:51:45.145Z,98475.47
2018-03-03T05:54:11.223Z,98480.73
2018-03-03T05:56:37.159Z,98484.76
2018-03-03T05:59:03.091Z,98481.75
2018-03-03T06:01:29.033Z,98479.21
2018-03-03T06:03:55.316Z,98477.25
2018-03-03T06:06:21.270Z,98477.72
2018-03-03T06:08:47.203Z,98480.00
2018-03-03T06:11:13.135Z,98478.23
2018-03-03T06:13:39.102Z,98480.66
2018-03-03T06:16:05.064Z,98486.00
2018-03-03T06:18:31.049Z,98484.69
2018-03-03T06:20:57.005Z,98490.49
2018-03-03T06:23:22.941Z,98498.07
2018-03-03T06:25:48.884Z,98503.34
2018-03-03T06:28:14.811Z,98504.63
2018-03-03T06:30:40.765Z,98497.25
2018-03-03T06:33:06.729Z,98493.98
2018-03-03T06:35:32.672Z,98492.18
2018-03-03T06:37:58.630Z,98488.53
2018-03-03T06:40:24.570Z,98487.57
2018-03-03T06:42:50.599Z,98489.91
2018-03-03T06:45:16.531Z,98494.63
2018-03-03T06:47:42.539Z,98508.08
2018-03-03T06:50:08.491Z,98501.37
2018-03-03T06:52:34.437Z,98507.80
2018-03-03T06:55:00.415Z,98511.50
2018-03-03T06:57:26.355Z,98514.22
2018-03-03T06:59:52.296Z,98519.09
2018-03-03T07:02:18.249Z,98514.89
2018-03-03T07:04:44.192Z,98522.11
2018-03-03T07:07:10.131Z,98512.28
2018-03-03T07:09:36.073Z,98518.02
2018-03-03T07:12:02.000Z,98517.92
2018-03-03T07:14:27.941Z,98525.75
2018-03-03T07:16:53.897Z,98530.87
2018-03-03T07:19:19.841Z,98530.05
2018-03-03T07:21:45.784Z,98534.31
2018-03-03T07:24:11.805Z,98533.08
2018-03-03T07:26:37.749Z,98538.73
2018-03-03T07:29:03.708Z,98535.84
2018-03-03T07:31:29.635Z,98532.78
2018-03-03T07:33:55.570Z,98541.39
2018-03-03T07:36:21.607Z,98543.73
2018-03-03T07:38:47.575Z,98544.41
2018-03-03T07:41:13.571Z,98537.47
2018-03-03T07:43:39.553Z,98545.15
2018-03-03T07:46:05.514Z,98542.27
2018-03-03T07:48:31.518Z,98533.48
2018-03-03T07:50:57.422Z,98541.67
2018-03-03T07:53:23.379Z,98537.22
2018-03-03T07:55:49.311Z,98536.03
2018-03-03T07:58:15.299Z,98526.71
2018-03-03T08:00:42.335Z,98523.36
2018-03-03T08:03:08.284Z,98516.91
2018-03-03T08:05:34.245Z,98516.46
2018-03-03T08:08:00.180Z,98523.50
2018-03-03T08:10:26.107Z,98522.10
2018-03-03T08:12:52.050Z,98525.84
2018-03-03T08:15:18.106Z,98515.36
2018-03-03T08:17:44.109Z,98524.49
2018-03-03T08:20:10.054Z,98518.91
2018-03-03T08:22:36.079Z,98509.34
2018-03-03T08:25:02.102Z,98513.58
2018-03-03T08:27:28.096Z,98515.75
2018-03-03T08:29:54.042Z,98514.90
2018-03-03T08:32:19.992Z,98512.64
2018-03-03T08:34:45.954Z,98506.99
2018-03-03T08:37:11.917Z,98510.86
2018-03-03T08:39:37.856Z,98508.55
2018-03-03T08:42:03.798Z,98509.77
2018-03-03T08:44:29.762Z,98506.73
2018-03-03T08:46:55.703Z,98504.38
2018-03-03T08:49:21.628Z,98508.20
2018-03-03T08:51:47.567Z,98504.09
2018-03-03T08:54:13.514Z,98495.95
2018-03-03T08:56:39.446Z,98495.71
2018-03-03T08:59:05.392Z,98503.09
2018-03-03T09:01:31.362Z,98506.30
2018-03-03T09:03:57.287Z,98502.21
2018-03-03T09:06:23.208Z,98500.47
2018-03-03T09:08:49.166Z,98500.23
2018-03-03T09:11:15.144Z,98500.67
2018-03-03T09:13:41.094Z,98505.16
2018-03-03T09:16:07.102Z,98498.66
2018-03-03T09:18:33.024Z,98502.10
2018-03-03T09:20:58.971Z,98498.91
2018-03-03T09:23:25.000Z,98493.03
2018-03-03T09:25:50.935Z,98498.27
2018-03-03T09:28:21.302Z,98499.97
2018-03-03T09:30:47.253Z,98502.66
2018-03-03T09:33:13.218Z,98500.27
2018-03-03T09:35:39.175Z,98503.49
2018-03-03T09:38:05.106Z,98501.42
2018-03-03T09:40:31.055Z,98507.39
2018-03-03T09:42:57.017Z,98511.23
2018-03-03T09:45:22.990Z,98463.06
2018-03-03T09:47:48.934Z,98501.02
2018-03-03T09:50:14.881Z,98504.52
2018-03-03T09:52:40.847Z,98499.81
2018-03-03T09:55:07.821Z,98491.69
2018-03-03T09:57:33.911Z,98490.03
2018-03-03T09:59:59.881Z,98493.98
2018-03-03T10:02:25.813Z,98494.31
2018-03-03T10:04:51.764Z,98494.80
2018-03-03T10:07:17.715Z,98492.95
2018-03-03T10:09:43.709Z,98495.50
2018-03-03T10:12:09.679Z,98493.06
2018-03-03T10:14:35.743Z,98487.29
2018-03-03T10:17:01.715Z,98481.91
2018-03-03T10:19:27.648Z,98479.72
2018-03-03T10:21:53.616Z,98481.91
2018-03-03T10:24:19.647Z,98482.14
2018-03-03T10:26:45.627Z,98482.94
2018-03-03T10:29:11.583Z,98476.22
2018-03-03T10:31:37.567Z,98481.66
2018-03-03T10:34:03.550Z,98484.55
2018-03-03T10:36:30.625Z,98480.70
2018-03-03T10:38:56.641Z,98487.14
2018-03-03T10:41:22.739Z,98486.63
2018-03-03T10:43:48.698Z,98487.42
2018-03-03T10:46:14.732Z,98484.13
2018-03-03T10:48:40.668Z,98482.57
2018-03-03T10:51:08.344Z,98484.48
2018-03-03T10:53:34.383Z,98484.59
2018-03-03T10:56:00.321Z,98491.84
2018-03-03T10:58:26.286Z,98493.84
2018-03-03T11:00:52.238Z,98502.13
2018-03-03T11:03:18.201Z,98493.23
2018-03-03T11:05:44.161Z,98491.22
2018-03-03T11:08:10.106Z,98485.77
2018-03-03T11:10:36.058Z,98483.02
2018-03-03T11:13:02.005Z,98482.36
2018-03-03T11:15:27.948Z,98472.91
2018-03-03T11:17:53.870Z,98476.21
2018-03-03T11:20:19.828Z,98480.86
2018-03-03T11:22:45.790Z,98483.66
2018-03-03T11:25:11.780Z,98479.22
2018-03-03T11:27:37.770Z,98477.61
2018-03-03T11:30:03.705Z,98477.56
2018-03-03T11:32:29.646Z,98478.58
2018-03-03T11:34:55.645Z,98482.97
2018-03-03T11:37:21.584Z,98471.91
2018-03-03T11:39:47.541Z,98466.56
2018-03-03T11:42:13.509Z,98465.06
2018-03-03T11:44:39.452Z,98471.75
2018-03-03T11:47:05.416Z,98463.67
2018-03-03T11:49:31.404Z,98471.02
2018-03-03T11:51:57.362Z,98468.30
2018-03-03T11:54:23.482Z,98468.20
2018-03-03T11:56:49.456Z,98462.61
2018-03-03T11:59:15.469Z,98459.03
2018-03-03T12:01:41.498Z,98451.42
2018-03-03T12:04:07.510Z,98458.16
2018-03-03T12:06:33.561Z,98454.07
2018-03-03T12:08:59.564Z,98439.55
2018-03-03T12:11:25.718Z,98450.31
2018-03-03T12:13:51.706Z,98450.97
2018-03-03T12:16:17.753Z,98452.09
2018-03-03T12:18:43.775Z,98453.23
2018-03-03T12:21:09.801Z,98455.95
2018-03-03T12:23:36.848Z,98449.73
2018-03-03T12:26:03.145Z,98458.86
2018-03-03T12:28:29.315Z,98457.92
2018-03-03T12:30:56.351Z,98457.55
2018-03-03T12:33:22.363Z,98456.34
2018-03-03T12:35:48.445Z,98456.45
2018-03-03T12:38:15.441Z,98453.64
2018-03-03T12:40:41.471Z,98453.50
2018-03-03T12:43:07.473Z,98449.78
2018-03-03T12:45:33.541Z,98450.47
2018-03-03T12:47:59.557Z,98448.45
2018-03-03T12:50:25.586Z,98453.03
2018-03-03T12:52:51.572Z,98447.27
2018-03-03T12:55:17.867Z,98452.02
2018-03-03T12:57:44.882Z,98461.79
2018-03-03T13:00:10.912Z,98459.53
2018-03-03T13:02:36.934Z,98455.17
2018-03-03T13:05:02.940Z,98451.45
2018-03-03T13:07:28.962Z,98457.69
2018-03-03T13:09:54.932Z,98443.33
2018-03-03T13:12:20.894Z,98445.67
2018-03-03T13:14:46.914Z,98448.05
2018-03-03T13:17:12.884Z,98450.84
2018-03-03T13:19:38.861Z,98444.69
2018-03-03T13:22:04.832Z,98454.42
2018-03-03T13:24:30.786Z,98446.87
2018-03-03T13:26:56.755Z,98454.39
2018-03-03T13:29:22.710Z,98454.47
2018-03-03T13:31:49.710Z,98452.83
2018-03-03T13:34:15.661Z,98453.57
2018-03-03T13:36:41.586Z,98454.82
2018-03-03T13:39:07.523Z,98450.45
2018-03-03T13:41:33.474Z,98459.63
2018-03-03T13:43:59.425Z,98446.86
2018-03-03T13:46:25.423Z,98446.00
2018-03-03T13:48:51.473Z,98449.36
2018-03-03T13:51:17.475Z,98449.15
2018-03-03T13:53:43.428Z,98439.28
2018-03-03T13:56:09.420Z,98449.28
2018-03-03T13:58:35.394Z,98438.69
2018-03-03T14:01:01.347Z,98445.15
2018-03-03T14:03:27.305Z,98441.91
2018-03-03T14:05:53.267Z,98450.17
2018-03-03T14:10:51.536Z,98442.48
2018-03-03T14:13:17.484Z,98438.98
2018-03-03T14:15:43.447Z,98444.21
2018-03-03T14:18:09.371Z,98436.01
2018-03-03T14:20:35.377Z,98439.03
2018-03-03T14:23:01.315Z,98436.25
2018-03-03T14:25:27.302Z,98447.22
2018-03-03T14:27:53.283Z,98436.75
2018-03-03T14:30:19.233Z,98432.15
2018-03-03T14:32:45.216Z,98432.29
2018-03-03T14:35:11.206Z,98437.98
2018-03-03T14:37:37.143Z,98438.15
2018-03-03T14:40:03.096Z,98429.73
2018-03-03T14:42:29.052Z,98429.56
2018-03-03T14:44:55.019Z,98429.77
2018-03-03T14:47:20.955Z,98434.27
2018-03-03T14:49:46.936Z,98437.55
2018-03-03T14:52:12.904Z,98436.89
2018-03-03T14:54:38.845Z,98433.91
2018-03-03T14:57:04.791Z,98431.00
2018-03-03T14:59:30.738Z,98425.73
2018-03-03T15:01:56.691Z,98432.55
2018-03-03T15:04:22.641Z,98431.91
2018-03-03T15:06:48.567Z,98430.54
2018-03-03T15:09:14.509Z,98431.20
2018-03-03T15:11:40.474Z,98434.49
2018-03-03T15:14:06.493Z,98441.85
2018-03-03T15:16:32.490Z,98447.31
2018-03-03T15:18:58.467Z,98454.70
2018-03-03T15:21:24.447Z,98449.30
2018-03-03T15:23:50.390Z,98454.03
2018-03-03T15:26:16.367Z,98461.75
2018-03-03T15:28:42.305Z,98457.27
2018-03-03T15:31:08.261Z,98462.09
2018-03-03T15:33:34.268Z,98460.84
2018-03-03T15:36:00.264Z,98464.44
2018-03-03T15:38:26.247Z,98467.78
2018-03-03T15:40:52.255Z,98470.58
2018-03-03T15:43:18.213Z,98471.17
2018-03-03T15:45:44.193Z,98472.55
2018-03-03T15:48:10.170Z,98479.69
2018-03-03T15:50:36.165Z,98479.98
2018-03-03T15:53:02.114Z,98490.13
2018-03-03T15:55:28.057Z,98490.95
2018-03-03T15:57:54.015Z,98496.67
2018-03-03T16:00:19.960Z,98501.23
2018-03-03T16:02:45.913Z,98497.22
2018-03-03T16:05:11.875Z,98504.45
2018-03-03T16:07:37.843Z,98503.84
2018-03-03T16:10:03.856Z,98520.72
2018-03-03T16:12:29.887Z,98526.23
2018-03-03T16:14:55.876Z,98523.48
2018-03-03T16:17:21.830Z,98528.28
2018-03-03T16:19:47.783Z,98529.89
2018-03-03T16:22:13.706Z,98517.84
2018-03-03T16:24:39.661Z,98523.36
2018-03-03T16:27:05.711Z,98526.30
2018-03-03T16:29:31.719Z,98532.45
2018-03-03T16:31:57.714Z,98531.64
2018-03-03T16:34:23.663Z,98535.78
2018-03-03T16:36:49.611Z,98537.81
2018-03-03T16:39:15.558Z,98548.20
2018-03-03T16:41:41.509Z,98557.85
2018-03-03T16:44:07.459Z,98563.62
2018-03-03T16:46:33.391Z,98570.56
2018-03-03T16:48:59.445Z,98567.72
2018-03-03T16:51:25.267Z,98569.72
2018-03-03T16:53:51.219Z,98570.31
2018-03-03T16:56:17.159Z,98569.53
2018-03-03T16:58:43.133Z,98575.27
2018-03-03T17:01:09.111Z,98574.72
2018-03-03T17:03:35.059Z,98578.68
2018-03-03T17:06:01.009Z,98578.43
2018-03-03T17:08:27.029Z,98578.17
2018-03-03T17:10:52.971Z,98579.96
2018-03-03T17:13:18.965Z,98580.12
2018-03-03T17:15:45.043Z,98587.65
2018-03-03T17:18:10.975Z,98590.30
2018-03-03T17:20:36.975Z,98592.09
2018-03-03T17:23:02.908Z,98600.80
2018-03-03T17:25:28.861Z,98592.06
2018-03-03T17:27:54.801Z,98587.25
2018-03-03T17:30:20.782Z,98603.12
2018-03-03T17:32:46.740Z,98604.42
2018-03-03T17:35:12.695Z,98612.36
2018-03-03T17:37:38.635Z,98618.43
2018-03-03T17:40:04.588Z,98629.02
2018-03-03T17:42:30.539Z,98636.84
2018-03-03T17:44:56.526Z,98637.25
2018-03-03T17:47:22.467Z,98641.80
2018-03-03T17:49:48.411Z,98650.52
2018-03-03T17:52:14.359Z,98652.89
2018-03-03T17:54:40.307Z,98652.66
2018-03-03T17:57:06.251Z,98648.02
2018-03-03T17:59:32.204Z,98650.38
2018-03-03T18:01:58.155Z,98648.19
2018-03-03T18:04:24.122Z,98644.52
2018-03-03T18:06:50.053Z,98642.43
2018-03-03T18:09:16.049Z,98652.80
2018-03-03T18:11:41.975Z,98654.17
2018-03-03T18:14:07.918Z,98657.94
2018-03-03T18:16:33.868Z,98659.93
2018-03-03T18:18:59.833Z,98654.42
2018-03-03T18:21:25.781Z,98650.94
2018-03-03T18:23:51.711Z,98641.98
2018-03-03T18:26:17.648Z,98644.85
2018-03-03T18:28:43.621Z,98639.34
2018-03-03T18:31:09.564Z,98636.34
2018-03-03T18:33:35.508Z,98632.67
2018-03-03T18:36:01.438Z,98637.67
2018-03-03T18:38:27.407Z,98634.52
2018-03-03T18:40:53.350Z,98635.38
2018-03-03T18:43:19.316Z,98626.67
2018-03-03T18:45:45.240Z,98619.35
2018-03-03T18:48:11.183Z,98628.11
2018-03-03T18:50:37.138Z,98627.99
2018-03-03T18:53:03.122Z,98626.84
2018-03-03T18:55:29.080Z,98627.98
2018-03-03T18:57:55.041Z,98620.91
2018-03-03T19:00:21.006Z,98634.73
2018-03-03T19:02:46.984Z,98618.95
2018-03-03T19:05:12.922Z,98615.92
2018-03-03T19:07:38.861Z,98614.56
2018-03-03T19:10:04.796Z,98609.20
2018-03-03T19:12:30.785Z,98608.37
2018-03-03T19:14:56.743Z,98611.78
2018-03-03T19:17:22.730Z,98611.20
2018-03-03T19:19:48.684Z,98605.92
2018-03-03T19:22:14.641Z,98616.20
2018-03-03T19:24:40.590Z,98613.63
2018-03-03T19:27:06.551Z,98615.77
2018-03-03T19:29:32.488Z,98617.91
2018-03-03T19:31:58.452Z,98625.66
2018-03-03T19:34:24.413Z,98631.93
2018-03-03T19:36:50.370Z,98632.38
2018-03-03T19:39:16.309Z,98630.83
2018-03-03T19:41:42.309Z,98633.05
2018-03-03T19:44:08.274Z,98640.48
2018-03-03T19:46:34.233Z,98637.02
2018-03-03T19:49:00.201Z,98650.95
2018-03-03T19:51:26.178Z,98657.77
2018-03-03T19:53:52.125Z,98662.26
2018-03-03T19:56:18.070Z,98654.05
2018-03-03T19:58:44.033Z,98664.70
2018-03-03T20:01:09.994Z,98667.06
2018-03-03T20:03:35.938Z,98668.41
2018-03-03T20:06:01.885Z,98668.33
2018-03-03T20:08:27.829Z,98675.05
2018-03-03T20:10:53.784Z,98683.63
2018-03-03T20:13:19.737Z,98675.59
2018-03-03T20:15:45.683Z,98678.29
2018-03-03T20:18:11.612Z,98677.42
2018-03-03T20:20:37.546Z,98666.72
2018-03-03T20:23:03.501Z,98682.84
2018-03-03T20:25:29.472Z,98681.43
2018-03-03T20:27:55.426Z,98677.05
2018-03-03T20:30:21.424Z,98683.11
2018-03-03T20:32:47.360Z,98684.61
2018-03-03T20:35:13.282Z,98681.17
2018-03-03T20:37:39.221Z,98685.47
2018-03-03T20:40:05.205Z,98685.25
2018-03-03T20:42:31.155Z,98681.77
2018-03-03T20:44:57.098Z,98688.15
2018-03-03T20:47:23.061Z,98678.12
2018-03-03T20:49:49.005Z,98691.00
2018-03-03T20:52:14.943Z,98689.84
2018-03-03T20:54:40.885Z,98682.43
2018-03-03T20:57:06.823Z,98684.64
2018-03-03T20:59:32.768Z,98688.56
2018-03-03T21:01:58.716Z,98678.38
2018-03-03T21:04:24.684Z,98680.58
2018-03-03T21:06:50.643Z,98682.41
2018-03-03T21:09:16.570Z,98674.17
2018-03-03T21:11:42.503Z,98681.38
2018-03-03T21:14:08.454Z,98683.64
2018-03-03T21:16:34.431Z,98683.25
2018-03-03T21:19:00.379Z,98688.95
2018-03-03T21:21:26.323Z,98689.80
2018-03-03T21:23:52.302Z,98694.09
2018-03-03T21:26:18.265Z,98683.02
2018-03-03T21:28:44.216Z,98677.05
2018-03-03T21:31:10.165Z,98666.87
2018-03-03T21:33:36.117Z,98677.60
2018-03-03T21:36:02.065Z,98686.95
2018-03-03T21:38:28.013Z,98681.06
2018-03-03T21:40:53.961Z,98683.77
2018-03-03T21:43:19.911Z,98686.94
2018-03-03T21:45:45.874Z,98691.00
2018-03-03T21:48:11.802Z,98688.82
2018-03-03T21:50:37.821Z,98702.94
2018-03-03T21:53:03.761Z,98697.50
2018-03-03T21:55:29.722Z,98693.20
2018-03-03T21:57:55.715Z,98701.44
2018-03-03T22:00:21.675Z,98702.16
2018-03-03T22:02:47.621Z,98698.63
2018-03-03T22:05:13.573Z,98690.67
2018-03-03T22:07:39.515Z,98694.86
2018-03-03T22:10:05.524Z,98696.75
2018-03-03T22:12:31.437Z,98694.37
2018-03-03T22:14:57.454Z,98697.37
2018-03-03T22:17:23.380Z,98699.22
2018-03-03T22:19:49.328Z,98698.11
2018-03-03T22:22:15.288Z,98701.23
2018-03-03T22:24:41.233Z,98704.63
2018-03-03T22:27:07.193Z,98698.62
2018-03-03T22:29:33.147Z,98703.79
2018-03-03T22:31:59.093Z,98700.29
2018-03-03T22:34:25.059Z,98707.66
2018-03-03T22:36:51.011Z,98697.20
2018-03-03T22:39:16.979Z,98702.79
2018-03-03T22:41:42.931Z,98707.44
2018-03-03T22:44:08.925Z,98709.08
2018-03-03T22:46:34.899Z,98710.66
2018-03-03T22:49:00.832Z,98706.30
2018-03-03T22:51:26.770Z,98711.48
2018-03-03T22:53:52.694Z,98704.70
2018-03-03T22:56:18.639Z,98706.11
2018-03-03T22:58:44.579Z,98706.73
2018-03-03T23:01:10.519Z,98696.42
2018-03-03T23:03:36.474Z,98705.06
2018-03-03T23:06:02.439Z,98702.73
2018-03-03T23:08:28.379Z,98704.22
2018-03-03T23:10:54.349Z,98702.89
2018-03-03T23:13:20.319Z,98704.81
2018-03-03T23:15:46.253Z,98705.33
2018-03-03T23:18:12.187Z,98709.22
2018-03-03T23:20:38.149Z,98707.34
2018-03-03T23:23:04.077Z,98700.45
2018-03-03T23:25:30.074Z,98691.47
2018-03-03T23:27:56.020Z,98703.28
2018-03-03T23:30:21.949Z,98695.80
2018-03-03T23:32:47.903Z,98697.66
2018-03-03T23:35:13.840Z,98700.86
2018-03-03T23:37:39.879Z,98700.08
2018-03-03T23:40:05.832Z,98696.00
2018-03-03T23:42:31.779Z,98699.66
2018-03-03T23:44:57.708Z,98689.09
2018-03-03T23:47:23.647Z,98695.86
2018-03-03T23:49:49.589Z,98700.63
2018-03-03T23:52:15.527Z,98696.82
2018-03-03T23:54:41.465Z,98708.66
2018-03-03T23:57:07.397Z,98704.87
2018-03-03T23:59:33.349Z,98701.09
